sensor_id;sensor_type;location;lat;lon;timestamp;P1;durP1;ratioP1;P2;durP2;ratioP2
8139;SDS011;4111;50.972;7.072;2024-02-28T00:02:02;45.10;;;21.97;;
8139;SDS011;4111;50.972;7.072;2024-02-28T00:04:28;33.03;;;22.37;;
8139;SDS011;4111;50.972;7.072;2024-02-28T00:06:55;31.57;;;21.63;;
8139;SDS011;4111;50.972;7.072;2024-02-28T00:09:21;35.40;;;22.77;;
8139;SDS011;4111;50.972;7.072;2024-02-28T00:11:48;34.50;;;22.00;;
8139;SDS011;4111;50.972;7.072;2024-02-28T00:14:15;37.33;;;22.40;;
8139;SDS011;4111;50.972;7.072;2024-02-28T00:16:42;40.37;;;24.07;;
8139;SDS011;4111;50.972;7.072;2024-02-28T00:19:10;35.93;;;23.17;;
8139;SDS011;4111;50.972;7.072;2024-02-28T00:21:40;34.03;;;22.83;;
8139;SDS011;4111;50.972;7.072;2024-02-28T00:24:07;36.03;;;23.50;;
8139;SDS011;4111;50.972;7.072;2024-02-28T00:26:35;36.57;;;22.80;;
8139;SDS011;4111;50.972;7.072;2024-02-28T00:29:02;34.93;;;22.87;;
8139;SDS011;4111;50.972;7.072;2024-02-28T00:31:28;38.90;;;23.93;;
8139;SDS011;4111;50.972;7.072;2024-02-28T00:33:55;40.47;;;24.70;;
8139;SDS011;4111;50.972;7.072;2024-02-28T00:36:22;43.90;;;23.87;;
8139;SDS011;4111;50.972;7.072;2024-02-28T00:38:49;41.90;;;26.17;;
8139;SDS011;4111;50.972;7.072;2024-02-28T00:41:15;40.20;;;24.53;;
8139;SDS011;4111;50.972;7.072;2024-02-28T00:43:42;41.80;;;25.63;;
8139;SDS011;4111;50.972;7.072;2024-02-28T00:46:08;43.60;;;25.00;;
8139;SDS011;4111;50.972;7.072;2024-02-28T00:48:38;41.63;;;23.87;;
8139;SDS011;4111;50.972;7.072;2024-02-28T00:51:05;40.73;;;24.87;;
8139;SDS011;4111;50.972;7.072;2024-02-28T00:53:32;41.87;;;25.70;;
8139;SDS011;4111;50.972;7.072;2024-02-28T00:55:58;39.27;;;24.97;;
8139;SDS011;4111;50.972;7.072;2024-02-28T00:58:25;39.77;;;25.00;;
8139;SDS011;4111;50.972;7.072;2024-02-28T01:00:53;40.20;;;26.23;;
8139;SDS011;4111;50.972;7.072;2024-02-28T01:03:20;43.03;;;26.00;;
8139;SDS011;4111;50.972;7.072;2024-02-28T01:05:48;45.40;;;27.23;;
8139;SDS011;4111;50.972;7.072;2024-02-28T01:08:15;47.00;;;27.87;;
8139;SDS011;4111;50.972;7.072;2024-02-28T01:10:43;40.77;;;26.73;;
8139;SDS011;4111;50.972;7.072;2024-02-28T01:13:11;45.20;;;26.17;;
8139;SDS011;4111;50.972;7.072;2024-02-28T01:15:41;40.47;;;24.50;;
8139;SDS011;4111;50.972;7.072;2024-02-28T01:18:08;45.57;;;24.93;;
8139;SDS011;4111;50.972;7.072;2024-02-28T01:20:36;41.50;;;26.17;;
8139;SDS011;4111;50.972;7.072;2024-02-28T01:23:03;40.67;;;24.30;;
8139;SDS011;4111;50.972;7.072;2024-02-28T01:25:30;44.23;;;25.27;;
8139;SDS011;4111;50.972;7.072;2024-02-28T01:27:57;43.63;;;25.30;;
8139;SDS011;4111;50.972;7.072;2024-02-28T01:30:26;43.93;;;26.73;;
8139;SDS011;4111;50.972;7.072;2024-02-28T01:32:52;40.97;;;25.03;;
8139;SDS011;4111;50.972;7.072;2024-02-28T01:35:19;44.60;;;26.07;;
8139;SDS011;4111;50.972;7.072;2024-02-28T01:37:45;42.93;;;25.80;;
8139;SDS011;4111;50.972;7.072;2024-02-28T01:40:12;43.37;;;25.03;;
8139;SDS011;4111;50.972;7.072;2024-02-28T01:42:39;52.40;;;26.33;;
8139;SDS011;4111;50.972;7.072;2024-02-28T01:45:05;44.90;;;25.63;;
8139;SDS011;4111;50.972;7.072;2024-02-28T01:47:35;47.17;;;26.77;;
8139;SDS011;4111;50.972;7.072;2024-02-28T01:50:02;46.87;;;27.70;;
8139;SDS011;4111;50.972;7.072;2024-02-28T01:52:28;52.57;;;28.90;;
8139;SDS011;4111;50.972;7.072;2024-02-28T01:54:56;57.43;;;29.80;;
8139;SDS011;4111;50.972;7.072;2024-02-28T01:57:23;49.00;;;28.87;;
8139;SDS011;4111;50.972;7.072;2024-02-28T01:59:50;48.87;;;26.97;;
8139;SDS011;4111;50.972;7.072;2024-02-28T02:02:18;48.63;;;29.10;;
8139;SDS011;4111;50.972;7.072;2024-02-28T02:04:45;50.07;;;28.10;;
8139;SDS011;4111;50.972;7.072;2024-02-28T02:07:11;46.43;;;28.63;;
8139;SDS011;4111;50.972;7.072;2024-02-28T02:09:37;51.20;;;29.97;;
8139;SDS011;4111;50.972;7.072;2024-02-28T02:12:04;49.10;;;28.67;;
8139;SDS011;4111;50.972;7.072;2024-02-28T02:14:31;51.37;;;28.10;;
8139;SDS011;4111;50.972;7.072;2024-02-28T02:16:57;51.57;;;28.87;;
8139;SDS011;4111;50.972;7.072;2024-02-28T02:19:24;53.03;;;31.00;;
8139;SDS011;4111;50.972;7.072;2024-02-28T02:21:52;55.43;;;30.67;;
8139;SDS011;4111;50.972;7.072;2024-02-28T02:24:20;51.20;;;30.63;;
8139;SDS011;4111;50.972;7.072;2024-02-28T02:26:46;51.43;;;30.13;;
8139;SDS011;4111;50.972;7.072;2024-02-28T02:29:13;54.70;;;31.13;;
8139;SDS011;4111;50.972;7.072;2024-02-28T02:31:39;51.97;;;31.53;;
8139;SDS011;4111;50.972;7.072;2024-02-28T02:34:06;53.83;;;31.40;;
8139;SDS011;4111;50.972;7.072;2024-02-28T02:36:33;54.93;;;31.37;;
8139;SDS011;4111;50.972;7.072;2024-02-28T02:39:00;49.10;;;29.53;;
8139;SDS011;4111;50.972;7.072;2024-02-28T02:41:26;56.30;;;31.93;;
8139;SDS011;4111;50.972;7.072;2024-02-28T02:43:53;56.07;;;32.73;;
8139;SDS011;4111;50.972;7.072;2024-02-28T02:46:19;60.73;;;33.20;;
8139;SDS011;4111;50.972;7.072;2024-02-28T02:48:46;60.30;;;33.43;;
8139;SDS011;4111;50.972;7.072;2024-02-28T02:51:12;53.87;;;32.93;;
8139;SDS011;4111;50.972;7.072;2024-02-28T02:53:39;59.87;;;34.40;;
8139;SDS011;4111;50.972;7.072;2024-02-28T02:56:05;64.53;;;34.90;;
8139;SDS011;4111;50.972;7.072;2024-02-28T02:58:32;61.40;;;34.33;;
8139;SDS011;4111;50.972;7.072;2024-02-28T03:00:58;59.53;;;33.90;;
8139;SDS011;4111;50.972;7.072;2024-02-28T03:03:25;58.83;;;33.70;;
8139;SDS011;4111;50.972;7.072;2024-02-28T03:05:52;61.47;;;33.57;;
8139;SDS011;4111;50.972;7.072;2024-02-28T03:08:18;59.10;;;34.57;;
8139;SDS011;4111;50.972;7.072;2024-02-28T03:10:45;66.73;;;36.23;;
8139;SDS011;4111;50.972;7.072;2024-02-28T03:13:11;65.10;;;37.40;;
8139;SDS011;4111;50.972;7.072;2024-02-28T03:15:38;61.50;;;35.70;;
8139;SDS011;4111;50.972;7.072;2024-02-28T03:18:04;73.37;;;37.60;;
8139;SDS011;4111;50.972;7.072;2024-02-28T03:20:31;68.60;;;37.30;;
8139;SDS011;4111;50.972;7.072;2024-02-28T03:22:57;70.33;;;38.10;;
8139;SDS011;4111;50.972;7.072;2024-02-28T03:25:23;72.47;;;38.97;;
8139;SDS011;4111;50.972;7.072;2024-02-28T03:27:50;70.80;;;38.80;;
8139;SDS011;4111;50.972;7.072;2024-02-28T03:30:17;68.53;;;39.37;;
8139;SDS011;4111;50.972;7.072;2024-02-28T03:32:44;63.07;;;38.03;;
8139;SDS011;4111;50.972;7.072;2024-02-28T03:35:10;64.60;;;36.80;;
8139;SDS011;4111;50.972;7.072;2024-02-28T03:37:36;65.47;;;38.83;;
8139;SDS011;4111;50.972;7.072;2024-02-28T03:40:03;67.83;;;38.43;;
8139;SDS011;4111;50.972;7.072;2024-02-28T03:42:30;66.23;;;38.63;;
8139;SDS011;4111;50.972;7.072;2024-02-28T03:44:56;66.17;;;38.93;;
8139;SDS011;4111;50.972;7.072;2024-02-28T03:47:23;65.03;;;37.40;;
8139;SDS011;4111;50.972;7.072;2024-02-28T03:49:50;62.03;;;36.27;;
8139;SDS011;4111;50.972;7.072;2024-02-28T03:52:17;64.70;;;38.23;;
8139;SDS011;4111;50.972;7.072;2024-02-28T03:54:43;68.83;;;39.10;;
8139;SDS011;4111;50.972;7.072;2024-02-28T03:57:10;71.70;;;42.43;;
8139;SDS011;4111;50.972;7.072;2024-02-28T03:59:37;73.83;;;39.40;;
8139;SDS011;4111;50.972;7.072;2024-02-28T04:02:03;69.13;;;38.77;;
8139;SDS011;4111;50.972;7.072;2024-02-28T04:04:30;69.07;;;40.13;;
8139;SDS011;4111;50.972;7.072;2024-02-28T04:06:56;72.23;;;40.47;;
8139;SDS011;4111;50.972;7.072;2024-02-28T04:09:23;71.37;;;39.67;;
8139;SDS011;4111;50.972;7.072;2024-02-28T04:11:49;66.97;;;38.23;;
8139;SDS011;4111;50.972;7.072;2024-02-28T04:14:17;68.80;;;40.27;;
8139;SDS011;4111;50.972;7.072;2024-02-28T04:16:43;63.97;;;39.07;;
8139;SDS011;4111;50.972;7.072;2024-02-28T04:19:11;66.93;;;39.07;;
8139;SDS011;4111;50.972;7.072;2024-02-28T04:21:37;64.73;;;40.67;;
8139;SDS011;4111;50.972;7.072;2024-02-28T04:24:06;72.57;;;41.70;;
8139;SDS011;4111;50.972;7.072;2024-02-28T04:26:33;70.90;;;41.13;;
8139;SDS011;4111;50.972;7.072;2024-02-28T04:29:00;64.33;;;39.50;;
8139;SDS011;4111;50.972;7.072;2024-02-28T04:31:29;66.03;;;40.03;;
8139;SDS011;4111;50.972;7.072;2024-02-28T04:33:55;67.07;;;41.10;;
8139;SDS011;4111;50.972;7.072;2024-02-28T04:36:21;72.97;;;41.23;;
8139;SDS011;4111;50.972;7.072;2024-02-28T04:38:48;69.57;;;39.67;;
8139;SDS011;4111;50.972;7.072;2024-02-28T04:41:14;76.47;;;40.90;;
8139;SDS011;4111;50.972;7.072;2024-02-28T04:43:43;77.43;;;41.77;;
8139;SDS011;4111;50.972;7.072;2024-02-28T04:46:09;75.60;;;41.97;;
8139;SDS011;4111;50.972;7.072;2024-02-28T04:48:36;73.30;;;41.33;;
8139;SDS011;4111;50.972;7.072;2024-02-28T04:51:02;73.63;;;41.60;;
8139;SDS011;4111;50.972;7.072;2024-02-28T04:53:29;76.00;;;43.60;;
8139;SDS011;4111;50.972;7.072;2024-02-28T04:55:55;68.73;;;40.63;;
8139;SDS011;4111;50.972;7.072;2024-02-28T04:58:22;64.93;;;42.93;;
8139;SDS011;4111;50.972;7.072;2024-02-28T05:00:48;65.77;;;40.13;;
8139;SDS011;4111;50.972;7.072;2024-02-28T05:03:16;58.30;;;39.73;;
8139;SDS011;4111;50.972;7.072;2024-02-28T05:05:43;66.57;;;40.40;;
8139;SDS011;4111;50.972;7.072;2024-02-28T05:08:09;68.47;;;40.27;;
8139;SDS011;4111;50.972;7.072;2024-02-28T05:10:35;60.97;;;38.27;;
8139;SDS011;4111;50.972;7.072;2024-02-28T05:13:02;71.23;;;41.53;;
8139;SDS011;4111;50.972;7.072;2024-02-28T05:15:30;66.87;;;39.87;;
8139;SDS011;4111;50.972;7.072;2024-02-28T05:17:56;71.47;;;41.23;;
8139;SDS011;4111;50.972;7.072;2024-02-28T05:20:23;65.60;;;40.47;;
8139;SDS011;4111;50.972;7.072;2024-02-28T05:22:49;66.43;;;39.67;;
8139;SDS011;4111;50.972;7.072;2024-02-28T05:25:16;67.20;;;41.90;;
8139;SDS011;4111;50.972;7.072;2024-02-28T05:27:42;63.17;;;40.43;;
8139;SDS011;4111;50.972;7.072;2024-02-28T05:30:09;66.63;;;40.20;;
8139;SDS011;4111;50.972;7.072;2024-02-28T05:32:36;65.30;;;41.13;;
8139;SDS011;4111;50.972;7.072;2024-02-28T05:35:02;64.63;;;39.87;;
8139;SDS011;4111;50.972;7.072;2024-02-28T05:37:29;61.03;;;40.03;;
8139;SDS011;4111;50.972;7.072;2024-02-28T05:39:56;63.37;;;40.27;;
8139;SDS011;4111;50.972;7.072;2024-02-28T05:42:22;66.33;;;41.40;;
8139;SDS011;4111;50.972;7.072;2024-02-28T05:44:49;63.23;;;39.90;;
8139;SDS011;4111;50.972;7.072;2024-02-28T05:47:16;66.27;;;40.40;;
8139;SDS011;4111;50.972;7.072;2024-02-28T05:49:43;64.47;;;41.13;;
8139;SDS011;4111;50.972;7.072;2024-02-28T05:52:09;67.93;;;40.07;;
8139;SDS011;4111;50.972;7.072;2024-02-28T05:54:36;70.00;;;43.27;;
8139;SDS011;4111;50.972;7.072;2024-02-28T05:57:02;62.33;;;39.57;;
8139;SDS011;4111;50.972;7.072;2024-02-28T05:59:29;67.83;;;41.67;;
8139;SDS011;4111;50.972;7.072;2024-02-28T06:01:56;64.33;;;39.27;;
8139;SDS011;4111;50.972;7.072;2024-02-28T06:04:22;66.50;;;41.37;;
8139;SDS011;4111;50.972;7.072;2024-02-28T06:06:48;62.90;;;39.57;;
8139;SDS011;4111;50.972;7.072;2024-02-28T06:09:16;67.90;;;40.13;;
8139;SDS011;4111;50.972;7.072;2024-02-28T06:11:43;64.13;;;38.97;;
8139;SDS011;4111;50.972;7.072;2024-02-28T06:14:09;59.93;;;39.10;;
8139;SDS011;4111;50.972;7.072;2024-02-28T06:16:38;59.27;;;38.47;;
8139;SDS011;4111;50.972;7.072;2024-02-28T06:19:05;63.30;;;39.80;;
8139;SDS011;4111;50.972;7.072;2024-02-28T06:21:31;61.07;;;40.03;;
8139;SDS011;4111;50.972;7.072;2024-02-28T06:23:58;66.93;;;41.63;;
8139;SDS011;4111;50.972;7.072;2024-02-28T06:26:24;65.33;;;40.20;;
8139;SDS011;4111;50.972;7.072;2024-02-28T06:28:51;67.10;;;39.87;;
8139;SDS011;4111;50.972;7.072;2024-02-28T06:31:17;67.97;;;40.70;;
8139;SDS011;4111;50.972;7.072;2024-02-28T06:33:44;66.87;;;41.20;;
8139;SDS011;4111;50.972;7.072;2024-02-28T06:36:12;69.40;;;42.27;;
8139;SDS011;4111;50.972;7.072;2024-02-28T06:38:41;73.83;;;42.87;;
8139;SDS011;4111;50.972;7.072;2024-02-28T06:41:26;70.93;;;41.87;;
8139;SDS011;4111;50.972;7.072;2024-02-28T06:43:55;73.40;;;41.93;;
8139;SDS011;4111;50.972;7.072;2024-02-28T06:49:32;68.63;;;39.80;;
8139;SDS011;4111;50.972;7.072;2024-02-28T06:52:30;65.70;;;39.17;;
8139;SDS011;4111;50.972;7.072;2024-02-28T06:55:03;67.50;;;39.17;;
8139;SDS011;4111;50.972;7.072;2024-02-28T07:00:55;73.00;;;39.67;;
8139;SDS011;4111;50.972;7.072;2024-02-28T07:03:59;67.67;;;40.13;;
8139;SDS011;4111;50.972;7.072;2024-02-28T07:06:36;63.80;;;37.97;;
8139;SDS011;4111;50.972;7.072;2024-02-28T07:11:59;65.73;;;39.30;;
8139;SDS011;4111;50.972;7.072;2024-02-28T07:14:39;69.70;;;40.63;;
8139;SDS011;4111;50.972;7.072;2024-02-28T07:17:33;71.30;;;42.17;;
8139;SDS011;4111;50.972;7.072;2024-02-28T07:20:03;62.57;;;38.37;;
8139;SDS011;4111;50.972;7.072;2024-02-28T07:22:31;62.80;;;37.77;;
8139;SDS011;4111;50.972;7.072;2024-02-28T07:25:19;62.97;;;38.17;;
8139;SDS011;4111;50.972;7.072;2024-02-28T07:27:48;66.00;;;37.87;;
8139;SDS011;4111;50.972;7.072;2024-02-28T07:30:21;59.27;;;34.70;;
8139;SDS011;4111;50.972;7.072;2024-02-28T07:32:56;55.37;;;35.10;;
8139;SDS011;4111;50.972;7.072;2024-02-28T07:36:16;59.07;;;36.53;;
8139;SDS011;4111;50.972;7.072;2024-02-28T07:38:35;62.13;;;37.57;;
8139;SDS011;4111;50.972;7.072;2024-02-28T07:41:06;61.90;;;36.43;;
8139;SDS011;4111;50.972;7.072;2024-02-28T07:43:32;56.43;;;34.83;;
8139;SDS011;4111;50.972;7.072;2024-02-28T07:46:32;55.70;;;36.27;;
8139;SDS011;4111;50.972;7.072;2024-02-28T07:48:59;55.67;;;35.43;;
8139;SDS011;4111;50.972;7.072;2024-02-28T07:54:07;58.73;;;36.90;;
8139;SDS011;4111;50.972;7.072;2024-02-28T07:56:36;53.33;;;34.40;;
8139;SDS011;4111;50.972;7.072;2024-02-28T08:02:02;57.87;;;36.73;;
8139;SDS011;4111;50.972;7.072;2024-02-28T08:04:37;58.30;;;35.37;;
8139;SDS011;4111;50.972;7.072;2024-02-28T08:07:04;59.20;;;36.83;;
8139;SDS011;4111;50.972;7.072;2024-02-28T08:09:34;57.30;;;33.73;;
8139;SDS011;4111;50.972;7.072;2024-02-28T08:12:28;54.40;;;34.13;;
8139;SDS011;4111;50.972;7.072;2024-02-28T08:15:31;51.93;;;33.07;;
8139;SDS011;4111;50.972;7.072;2024-02-28T08:18:04;57.03;;;33.93;;
8139;SDS011;4111;50.972;7.072;2024-02-28T08:20:34;55.00;;;33.50;;
8139;SDS011;4111;50.972;7.072;2024-02-28T08:23:06;58.17;;;35.33;;
8139;SDS011;4111;50.972;7.072;2024-02-28T08:25:36;56.33;;;35.03;;
8139;SDS011;4111;50.972;7.072;2024-02-28T08:28:03;53.03;;;33.67;;
8139;SDS011;4111;50.972;7.072;2024-02-28T08:30:30;58.33;;;35.20;;
8139;SDS011;4111;50.972;7.072;2024-02-28T08:33:23;57.03;;;35.57;;
8139;SDS011;4111;50.972;7.072;2024-02-28T08:35:59;59.73;;;35.80;;
8139;SDS011;4111;50.972;7.072;2024-02-28T08:38:34;61.27;;;36.67;;
8139;SDS011;4111;50.972;7.072;2024-02-28T08:41:24;53.67;;;34.63;;
8139;SDS011;4111;50.972;7.072;2024-02-28T08:44:03;54.53;;;35.00;;
8139;SDS011;4111;50.972;7.072;2024-02-28T08:46:35;58.43;;;35.53;;
8139;SDS011;4111;50.972;7.072;2024-02-28T08:49:05;50.97;;;34.50;;
8139;SDS011;4111;50.972;7.072;2024-02-28T08:54:02;53.77;;;32.50;;
8139;SDS011;4111;50.972;7.072;2024-02-28T08:56:42;54.53;;;34.23;;
8139;SDS011;4111;50.972;7.072;2024-02-28T08:59:34;53.10;;;33.67;;
8139;SDS011;4111;50.972;7.072;2024-02-28T09:02:04;52.30;;;33.63;;
8139;SDS011;4111;50.972;7.072;2024-02-28T09:04:34;48.87;;;32.17;;
8139;SDS011;4111;50.972;7.072;2024-02-28T09:07:04;50.47;;;32.37;;
8139;SDS011;4111;50.972;7.072;2024-02-28T09:09:30;50.17;;;31.80;;
8139;SDS011;4111;50.972;7.072;2024-02-28T09:12:06;50.17;;;33.53;;
8139;SDS011;4111;50.972;7.072;2024-02-28T09:17:29;49.80;;;31.90;;
8139;SDS011;4111;50.972;7.072;2024-02-28T09:23:39;49.60;;;31.50;;
8139;SDS011;4111;50.972;7.072;2024-02-28T09:26:27;53.33;;;31.77;;
8139;SDS011;4111;50.972;7.072;2024-02-28T09:29:01;51.33;;;32.20;;
8139;SDS011;4111;50.972;7.072;2024-02-28T09:31:36;46.47;;;31.40;;
8139;SDS011;4111;50.972;7.072;2024-02-28T09:34:05;47.97;;;31.23;;
8139;SDS011;4111;50.972;7.072;2024-02-28T09:39:43;48.53;;;31.73;;
8139;SDS011;4111;50.972;7.072;2024-02-28T09:42:14;49.10;;;31.27;;
8139;SDS011;4111;50.972;7.072;2024-02-28T09:44:41;44.33;;;31.43;;
8139;SDS011;4111;50.972;7.072;2024-02-28T09:47:32;47.33;;;32.30;;
8139;SDS011;4111;50.972;7.072;2024-02-28T09:50:18;45.87;;;30.73;;
8139;SDS011;4111;50.972;7.072;2024-02-28T09:52:49;41.47;;;29.93;;
8139;SDS011;4111;50.972;7.072;2024-02-28T09:55:33;43.10;;;30.20;;
8139;SDS011;4111;50.972;7.072;2024-02-28T09:58:25;46.33;;;30.17;;
8139;SDS011;4111;50.972;7.072;2024-02-28T10:07:24;45.77;;;31.50;;
8139;SDS011;4111;50.972;7.072;2024-02-28T10:10:05;42.60;;;30.83;;
8139;SDS011;4111;50.972;7.072;2024-02-28T10:12:34;43.63;;;30.30;;
8139;SDS011;4111;50.972;7.072;2024-02-28T10:15:00;44.67;;;30.77;;
8139;SDS011;4111;50.972;7.072;2024-02-28T10:17:30;47.90;;;32.07;;
8139;SDS011;4111;50.972;7.072;2024-02-28T10:20:11;44.07;;;31.07;;
8139;SDS011;4111;50.972;7.072;2024-02-28T10:22:52;44.77;;;30.63;;
8139;SDS011;4111;50.972;7.072;2024-02-28T10:25:41;41.97;;;29.47;;
8139;SDS011;4111;50.972;7.072;2024-02-28T10:28:22;43.00;;;29.83;;
8139;SDS011;4111;50.972;7.072;2024-02-28T10:30:59;43.30;;;30.67;;
8139;SDS011;4111;50.972;7.072;2024-02-28T10:33:41;43.33;;;30.13;;
8139;SDS011;4111;50.972;7.072;2024-02-28T10:36:08;42.20;;;31.33;;
8139;SDS011;4111;50.972;7.072;2024-02-28T10:38:42;44.10;;;31.23;;
8139;SDS011;4111;50.972;7.072;2024-02-28T10:41:11;45.43;;;31.20;;
8139;SDS011;4111;50.972;7.072;2024-02-28T10:44:04;42.60;;;29.43;;
8139;SDS011;4111;50.972;7.072;2024-02-28T10:46:34;46.20;;;30.83;;
8139;SDS011;4111;50.972;7.072;2024-02-28T10:49:32;41.70;;;29.30;;
8139;SDS011;4111;50.972;7.072;2024-02-28T10:52:08;44.63;;;29.57;;
8139;SDS011;4111;50.972;7.072;2024-02-28T10:58:41;37.93;;;27.20;;
8139;SDS011;4111;50.972;7.072;2024-02-28T11:01:45;35.40;;;27.10;;
8139;SDS011;4111;50.972;7.072;2024-02-28T11:04:18;40.00;;;29.40;;
8139;SDS011;4111;50.972;7.072;2024-02-28T11:07:03;39.00;;;28.53;;
8139;SDS011;4111;50.972;7.072;2024-02-28T11:09:36;36.33;;;27.13;;
8139;SDS011;4111;50.972;7.072;2024-02-28T11:12:05;35.93;;;27.10;;
8139;SDS011;4111;50.972;7.072;2024-02-28T11:14:38;38.00;;;27.67;;
8139;SDS011;4111;50.972;7.072;2024-02-28T11:17:06;37.80;;;27.50;;
8139;SDS011;4111;50.972;7.072;2024-02-28T11:19:32;40.93;;;29.13;;
8139;SDS011;4111;50.972;7.072;2024-02-28T11:22:04;37.67;;;26.90;;
8139;SDS011;4111;50.972;7.072;2024-02-28T11:24:35;35.43;;;26.23;;
8139;SDS011;4111;50.972;7.072;2024-02-28T11:27:05;35.60;;;26.27;;
8139;SDS011;4111;50.972;7.072;2024-02-28T11:29:45;33.57;;;24.93;;
8139;SDS011;4111;50.972;7.072;2024-02-28T11:32:19;35.57;;;25.87;;
8139;SDS011;4111;50.972;7.072;2024-02-28T11:37:35;36.73;;;26.57;;
8139;SDS011;4111;50.972;7.072;2024-02-28T11:40:37;36.27;;;26.23;;
8139;SDS011;4111;50.972;7.072;2024-02-28T11:43:03;36.03;;;27.00;;
8139;SDS011;4111;50.972;7.072;2024-02-28T11:45:39;38.50;;;27.03;;
8139;SDS011;4111;50.972;7.072;2024-02-28T11:48:07;30.90;;;23.87;;
8139;SDS011;4111;50.972;7.072;2024-02-28T11:50:58;36.00;;;25.27;;
8139;SDS011;4111;50.972;7.072;2024-02-28T11:53:37;34.03;;;24.77;;
8139;SDS011;4111;50.972;7.072;2024-02-28T11:59:39;30.47;;;24.10;;
8139;SDS011;4111;50.972;7.072;2024-02-28T12:02:30;35.73;;;26.67;;
8139;SDS011;4111;50.972;7.072;2024-02-28T12:05:27;35.87;;;25.70;;
8139;SDS011;4111;50.972;7.072;2024-02-28T12:08:05;38.00;;;26.37;;
8139;SDS011;4111;50.972;7.072;2024-02-28T12:10:33;35.30;;;25.97;;
8139;SDS011;4111;50.972;7.072;2024-02-28T12:13:03;31.67;;;23.50;;
8139;SDS011;4111;50.972;7.072;2024-02-28T12:15:34;31.50;;;24.80;;
8139;SDS011;4111;50.972;7.072;2024-02-28T12:18:33;28.27;;;22.13;;
8139;SDS011;4111;50.972;7.072;2024-02-28T12:21:01;28.43;;;22.33;;
8139;SDS011;4111;50.972;7.072;2024-02-28T12:23:30;29.07;;;23.60;;
8139;SDS011;4111;50.972;7.072;2024-02-28T12:26:00;29.57;;;24.13;;
8139;SDS011;4111;50.972;7.072;2024-02-28T12:28:35;33.87;;;24.10;;
8139;SDS011;4111;50.972;7.072;2024-02-28T12:31:05;27.70;;;21.87;;
8139;SDS011;4111;50.972;7.072;2024-02-28T12:33:48;28.70;;;22.80;;
8139;SDS011;4111;50.972;7.072;2024-02-28T12:36:15;26.93;;;21.47;;
8139;SDS011;4111;50.972;7.072;2024-02-28T12:38:42;25.73;;;22.47;;
8139;SDS011;4111;50.972;7.072;2024-02-28T12:41:08;24.77;;;21.67;;
8139;SDS011;4111;50.972;7.072;2024-02-28T12:43:35;27.50;;;20.23;;
8139;SDS011;4111;50.972;7.072;2024-02-28T12:46:01;24.53;;;20.20;;
8139;SDS011;4111;50.972;7.072;2024-02-28T12:48:28;22.10;;;19.33;;
8139;SDS011;4111;50.972;7.072;2024-02-28T12:50:55;23.43;;;19.10;;
8139;SDS011;4111;50.972;7.072;2024-02-28T12:53:22;22.13;;;18.17;;
8139;SDS011;4111;50.972;7.072;2024-02-28T12:55:48;23.67;;;19.23;;
8139;SDS011;4111;50.972;7.072;2024-02-28T12:58:15;20.70;;;17.83;;
8139;SDS011;4111;50.972;7.072;2024-02-28T13:00:41;23.83;;;19.53;;
8139;SDS011;4111;50.972;7.072;2024-02-28T13:03:08;23.57;;;18.40;;
8139;SDS011;4111;50.972;7.072;2024-02-28T13:05:48;22.57;;;18.53;;
8139;SDS011;4111;50.972;7.072;2024-02-28T13:08:15;23.63;;;19.37;;
8139;SDS011;4111;50.972;7.072;2024-02-28T13:10:41;20.63;;;17.50;;
8139;SDS011;4111;50.972;7.072;2024-02-28T13:13:08;22.80;;;15.57;;
8139;SDS011;4111;50.972;7.072;2024-02-28T13:15:34;19.00;;;15.30;;
8139;SDS011;4111;50.972;7.072;2024-02-28T13:18:01;19.77;;;15.30;;
8139;SDS011;4111;50.972;7.072;2024-02-28T13:20:33;19.27;;;13.10;;
8139;SDS011;4111;50.972;7.072;2024-02-28T13:23:00;16.90;;;14.30;;
8139;SDS011;4111;50.972;7.072;2024-02-28T13:25:29;23.03;;;16.03;;
8139;SDS011;4111;50.972;7.072;2024-02-28T13:27:56;22.87;;;17.20;;
8139;SDS011;4111;50.972;7.072;2024-02-28T13:30:22;18.07;;;15.73;;
8139;SDS011;4111;50.972;7.072;2024-02-28T13:32:49;18.90;;;16.33;;
8139;SDS011;4111;50.972;7.072;2024-02-28T13:35:15;21.50;;;16.20;;
8139;SDS011;4111;50.972;7.072;2024-02-28T13:37:43;22.60;;;16.40;;
8139;SDS011;4111;50.972;7.072;2024-02-28T13:40:10;18.00;;;14.20;;
8139;SDS011;4111;50.972;7.072;2024-02-28T13:42:37;17.57;;;15.00;;
8139;SDS011;4111;50.972;7.072;2024-02-28T13:45:04;18.93;;;15.03;;
8139;SDS011;4111;50.972;7.072;2024-02-28T13:47:33;15.53;;;13.43;;
8139;SDS011;4111;50.972;7.072;2024-02-28T13:50:03;17.60;;;13.77;;
8139;SDS011;4111;50.972;7.072;2024-02-28T13:52:29;16.83;;;14.53;;
8139;SDS011;4111;50.972;7.072;2024-02-28T13:54:56;19.40;;;16.13;;
8139;SDS011;4111;50.972;7.072;2024-02-28T13:57:22;20.47;;;15.63;;
8139;SDS011;4111;50.972;7.072;2024-02-28T13:59:49;18.90;;;15.70;;
8139;SDS011;4111;50.972;7.072;2024-02-28T14:02:17;16.37;;;14.53;;
8139;SDS011;4111;50.972;7.072;2024-02-28T14:04:44;21.13;;;15.97;;
8139;SDS011;4111;50.972;7.072;2024-02-28T14:07:15;21.80;;;18.13;;
8139;SDS011;4111;50.972;7.072;2024-02-28T14:09:42;19.17;;;15.77;;
8139;SDS011;4111;50.972;7.072;2024-02-28T14:12:10;19.70;;;15.13;;
8139;SDS011;4111;50.972;7.072;2024-02-28T14:14:40;20.07;;;16.33;;
8139;SDS011;4111;50.972;7.072;2024-02-28T14:17:06;18.77;;;16.17;;
8139;SDS011;4111;50.972;7.072;2024-02-28T14:19:33;18.83;;;16.00;;
8139;SDS011;4111;50.972;7.072;2024-02-28T14:22:01;18.53;;;15.33;;
8139;SDS011;4111;50.972;7.072;2024-02-28T14:24:35;18.40;;;15.03;;
8139;SDS011;4111;50.972;7.072;2024-02-28T14:27:05;17.27;;;13.80;;
8139;SDS011;4111;50.972;7.072;2024-02-28T14:29:40;18.53;;;15.53;;
8139;SDS011;4111;50.972;7.072;2024-02-28T14:32:08;17.63;;;14.47;;
8139;SDS011;4111;50.972;7.072;2024-02-28T14:34:35;19.37;;;15.03;;
8139;SDS011;4111;50.972;7.072;2024-02-28T14:37:01;20.57;;;16.33;;
8139;SDS011;4111;50.972;7.072;2024-02-28T14:39:30;22.87;;;18.10;;
8139;SDS011;4111;50.972;7.072;2024-02-28T14:41:57;22.10;;;18.20;;
8139;SDS011;4111;50.972;7.072;2024-02-28T14:44:23;21.13;;;17.77;;
8139;SDS011;4111;50.972;7.072;2024-02-28T14:46:50;22.77;;;17.20;;
8139;SDS011;4111;50.972;7.072;2024-02-28T14:49:17;21.40;;;16.37;;
8139;SDS011;4111;50.972;7.072;2024-02-28T14:51:44;19.63;;;16.27;;
8139;SDS011;4111;50.972;7.072;2024-02-28T14:54:15;21.13;;;15.97;;
8139;SDS011;4111;50.972;7.072;2024-02-28T14:56:41;20.73;;;16.73;;
8139;SDS011;4111;50.972;7.072;2024-02-28T14:59:08;19.80;;;17.00;;
8139;SDS011;4111;50.972;7.072;2024-02-28T15:01:37;19.73;;;16.10;;
8139;SDS011;4111;50.972;7.072;2024-02-28T15:04:04;20.53;;;17.27;;
8139;SDS011;4111;50.972;7.072;2024-02-28T15:06:30;20.43;;;15.10;;
8139;SDS011;4111;50.972;7.072;2024-02-28T15:08:57;20.20;;;17.13;;
8139;SDS011;4111;50.972;7.072;2024-02-28T15:11:24;22.10;;;17.40;;
8139;SDS011;4111;50.972;7.072;2024-02-28T15:13:50;24.23;;;18.70;;
8139;SDS011;4111;50.972;7.072;2024-02-28T15:16:17;25.30;;;19.00;;
8139;SDS011;4111;50.972;7.072;2024-02-28T15:18:44;23.73;;;18.00;;
8139;SDS011;4111;50.972;7.072;2024-02-28T15:21:10;22.73;;;18.53;;
8139;SDS011;4111;50.972;7.072;2024-02-28T15:23:37;23.37;;;18.60;;
8139;SDS011;4111;50.972;7.072;2024-02-28T15:26:03;24.50;;;18.43;;
8139;SDS011;4111;50.972;7.072;2024-02-28T15:28:33;22.33;;;18.27;;
8139;SDS011;4111;50.972;7.072;2024-02-28T15:30:59;22.50;;;17.47;;
8139;SDS011;4111;50.972;7.072;2024-02-28T15:33:26;23.43;;;18.23;;
8139;SDS011;4111;50.972;7.072;2024-02-28T15:36:01;23.87;;;17.67;;
8139;SDS011;4111;50.972;7.072;2024-02-28T15:38:37;22.77;;;17.93;;
8139;SDS011;4111;50.972;7.072;2024-02-28T15:41:03;23.17;;;17.90;;
8139;SDS011;4111;50.972;7.072;2024-02-28T15:43:30;24.40;;;19.07;;
8139;SDS011;4111;50.972;7.072;2024-02-28T15:46:00;25.40;;;19.13;;
8139;SDS011;4111;50.972;7.072;2024-02-28T15:48:27;23.40;;;17.23;;
8139;SDS011;4111;50.972;7.072;2024-02-28T15:50:54;23.43;;;18.10;;